sensor_id;sensor_type;location;lat;lon;timestamp;P1;durP1;ratioP1;P2;durP2;ratioP2
1106;SDS011;540;49.448;8.612;2023-07-24T00:00:36;4.80;;;3.20;;
1106;SDS011;540;49.448;8.612;2023-07-24T00:03:05;6.47;;;3.72;;
1106;SDS011;540;49.448;8.612;2023-07-24T00:05:34;5.70;;;3.15;;
1106;SDS011;540;49.448;8.612;2023-07-24T00:08:02;7.00;;;3.40;;
1106;SDS011;540;49.448;8.612;2023-07-24T00:10:31;6.60;;;3.67;;
1106;SDS011;540;49.448;8.612;2023-07-24T00:12:59;8.18;;;3.55;;
1106;SDS011;540;49.448;8.612;2023-07-24T00:15:27;6.47;;;3.95;;
1106;SDS011;540;49.448;8.612;2023-07-24T00:17:55;6.15;;;3.83;;
1106;SDS011;540;49.448;8.612;2023-07-24T00:20:23;6.80;;;4.05;;
1106;SDS011;540;49.448;8.612;2023-07-24T00:22:52;6.40;;;3.63;;
1106;SDS011;540;49.448;8.612;2023-07-24T00:25:20;6.53;;;4.10;;
1106;SDS011;540;49.448;8.612;2023-07-24T00:27:49;7.00;;;3.92;;
1106;SDS011;540;49.448;8.612;2023-07-24T00:30:17;7.32;;;4.10;;
1106;SDS011;540;49.448;8.612;2023-07-24T00:32:45;7.38;;;3.67;;
1106;SDS011;540;49.448;8.612;2023-07-24T00:35:13;8.85;;;4.13;;
1106;SDS011;540;49.448;8.612;2023-07-24T00:37:41;6.43;;;3.65;;
1106;SDS011;540;49.448;8.612;2023-07-24T00:40:09;6.97;;;3.67;;
1106;SDS011;540;49.448;8.612;2023-07-24T00:42:37;7.00;;;4.03;;
1106;SDS011;540;49.448;8.612;2023-07-24T00:45:07;5.75;;;3.58;;
1106;SDS011;540;49.448;8.612;2023-07-24T00:47:35;6.20;;;3.80;;
1106;SDS011;540;49.448;8.612;2023-07-24T00:50:04;6.50;;;3.58;;
1106;SDS011;540;49.448;8.612;2023-07-24T00:52:32;7.70;;;3.78;;
1106;SDS011;540;49.448;8.612;2023-07-24T00:55:00;6.47;;;3.67;;
1106;SDS011;540;49.448;8.612;2023-07-24T00:57:28;5.80;;;3.50;;
1106;SDS011;540;49.448;8.612;2023-07-24T00:59:56;6.90;;;4.40;;
1106;SDS011;540;49.448;8.612;2023-07-24T01:02:26;5.45;;;3.55;;
1106;SDS011;540;49.448;8.612;2023-07-24T01:04:55;7.63;;;3.55;;
1106;SDS011;540;49.448;8.612;2023-07-24T01:07:23;7.20;;;3.97;;
1106;SDS011;540;49.448;8.612;2023-07-24T01:09:51;5.55;;;3.47;;
1106;SDS011;540;49.448;8.612;2023-07-24T01:12:19;10.00;;;4.20;;
1106;SDS011;540;49.448;8.612;2023-07-24T01:14:55;7.47;;;3.67;;
1106;SDS011;540;49.448;8.612;2023-07-24T01:17:30;6.72;;;4.38;;
1106;SDS011;540;49.448;8.612;2023-07-24T01:20:00;5.35;;;3.30;;
1106;SDS011;540;49.448;8.612;2023-07-24T01:22:32;7.43;;;3.85;;
1106;SDS011;540;49.448;8.612;2023-07-24T01:25:09;6.57;;;3.72;;
1106;SDS011;540;49.448;8.612;2023-07-24T01:27:42;6.88;;;4.07;;
1106;SDS011;540;49.448;8.612;2023-07-24T01:30:12;7.57;;;3.92;;
1106;SDS011;540;49.448;8.612;2023-07-24T01:32:41;6.72;;;3.92;;
1106;SDS011;540;49.448;8.612;2023-07-24T01:35:09;7.65;;;4.35;;
1106;SDS011;540;49.448;8.612;2023-07-24T01:37:38;6.68;;;3.92;;
1106;SDS011;540;49.448;8.612;2023-07-24T01:40:07;10.27;;;3.58;;
1106;SDS011;540;49.448;8.612;2023-07-24T01:42:36;7.30;;;4.40;;
1106;SDS011;540;49.448;8.612;2023-07-24T01:45:06;8.10;;;4.57;;
1106;SDS011;540;49.448;8.612;2023-07-24T01:47:35;6.90;;;3.80;;
1106;SDS011;540;49.448;8.612;2023-07-24T01:50:03;7.10;;;3.85;;
1106;SDS011;540;49.448;8.612;2023-07-24T01:52:32;6.43;;;4.38;;
1106;SDS011;540;49.448;8.612;2023-07-24T01:54:59;6.20;;;3.72;;
1106;SDS011;540;49.448;8.612;2023-07-24T01:57:27;7.40;;;4.15;;
1106;SDS011;540;49.448;8.612;2023-07-24T01:59:55;7.38;;;4.57;;
1106;SDS011;540;49.448;8.612;2023-07-24T02:02:24;8.35;;;4.25;;
1106;SDS011;540;49.448;8.612;2023-07-24T02:04:52;7.55;;;4.38;;
1106;SDS011;540;49.448;8.612;2023-07-24T02:07:20;9.70;;;5.65;;
1106;SDS011;540;49.448;8.612;2023-07-24T02:09:48;5.78;;;3.67;;
1106;SDS011;540;49.448;8.612;2023-07-24T02:12:15;7.93;;;4.25;;
1106;SDS011;540;49.448;8.612;2023-07-24T02:14:43;9.65;;;4.28;;
1106;SDS011;540;49.448;8.612;2023-07-24T02:17:14;7.93;;;4.15;;
1106;SDS011;540;49.448;8.612;2023-07-24T02:19:43;10.82;;;4.20;;
1106;SDS011;540;49.448;8.612;2023-07-24T02:22:11;6.93;;;3.78;;
1106;SDS011;540;49.448;8.612;2023-07-24T02:24:39;8.18;;;4.75;;
1106;SDS011;540;49.448;8.612;2023-07-24T02:27:07;7.55;;;4.10;;
1106;SDS011;540;49.448;8.612;2023-07-24T02:29:35;7.38;;;3.78;;
1106;SDS011;540;49.448;8.612;2023-07-24T02:32:03;6.40;;;3.58;;
1106;SDS011;540;49.448;8.612;2023-07-24T02:34:31;7.18;;;4.00;;
1106;SDS011;540;49.448;8.612;2023-07-24T02:37:00;9.43;;;4.43;;
1106;SDS011;540;49.448;8.612;2023-07-24T02:39:28;6.28;;;4.43;;
1106;SDS011;540;49.448;8.612;2023-07-24T02:41:56;7.35;;;4.32;;
1106;SDS011;540;49.448;8.612;2023-07-24T02:44:23;7.07;;;4.55;;
1106;SDS011;540;49.448;8.612;2023-07-24T02:46:51;7.15;;;3.95;;
1106;SDS011;540;49.448;8.612;2023-07-24T02:49:19;6.93;;;3.85;;
1106;SDS011;540;49.448;8.612;2023-07-24T02:51:47;9.93;;;4.82;;
1106;SDS011;540;49.448;8.612;2023-07-24T02:54:17;8.18;;;3.95;;
1106;SDS011;540;49.448;8.612;2023-07-24T02:56:45;5.00;;;3.42;;
1106;SDS011;540;49.448;8.612;2023-07-24T02:59:13;6.70;;;4.00;;
1106;SDS011;540;49.448;8.612;2023-07-24T03:01:41;8.05;;;4.55;;
1106;SDS011;540;49.448;8.612;2023-07-24T03:04:08;7.30;;;4.07;;
1106;SDS011;540;49.448;8.612;2023-07-24T03:06:38;11.15;;;4.47;;
1106;SDS011;540;49.448;8.612;2023-07-24T03:09:07;7.28;;;3.78;;
1106;SDS011;540;49.448;8.612;2023-07-24T03:11:36;6.80;;;3.67;;
1106;SDS011;540;49.448;8.612;2023-07-24T03:14:04;6.65;;;4.22;;
1106;SDS011;540;49.448;8.612;2023-07-24T03:16:31;12.90;;;4.25;;
1106;SDS011;540;49.448;8.612;2023-07-24T03:18:59;6.63;;;3.33;;
1106;SDS011;540;49.448;8.612;2023-07-24T03:21:27;7.75;;;4.10;;
1106;SDS011;540;49.448;8.612;2023-07-24T03:23:55;8.95;;;4.07;;
1106;SDS011;540;49.448;8.612;2023-07-24T03:26:23;8.18;;;4.22;;
1106;SDS011;540;49.448;8.612;2023-07-24T03:28:52;7.10;;;4.13;;
1106;SDS011;540;49.448;8.612;2023-07-24T03:31:20;7.47;;;4.07;;
1106;SDS011;540;49.448;8.612;2023-07-24T03:33:48;6.63;;;3.80;;
1106;SDS011;540;49.448;8.612;2023-07-24T03:36:15;7.43;;;3.90;;
1106;SDS011;540;49.448;8.612;2023-07-24T03:38:43;7.30;;;4.07;;
1106;SDS011;540;49.448;8.612;2023-07-24T03:41:11;8.90;;;4.43;;
1106;SDS011;540;49.448;8.612;2023-07-24T03:43:39;6.93;;;4.20;;
1106;SDS011;540;49.448;8.612;2023-07-24T03:46:08;9.10;;;4.68;;
1106;SDS011;540;49.448;8.612;2023-07-24T03:48:36;5.90;;;3.50;;
1106;SDS011;540;49.448;8.612;2023-07-24T03:51:03;8.88;;;4.60;;
1106;SDS011;540;49.448;8.612;2023-07-24T03:53:31;7.88;;;4.15;;
1106;SDS011;540;49.448;8.612;2023-07-24T03:55:59;9.30;;;4.68;;
1106;SDS011;540;49.448;8.612;2023-07-24T03:58:27;7.47;;;4.40;;
1106;SDS011;540;49.448;8.612;2023-07-24T04:00:55;7.30;;;4.85;;
1106;SDS011;540;49.448;8.612;2023-07-24T04:03:24;6.53;;;3.75;;
1106;SDS011;540;49.448;8.612;2023-07-24T04:05:52;7.30;;;4.20;;
1106;SDS011;540;49.448;8.612;2023-07-24T04:08:20;9.98;;;3.97;;
1106;SDS011;540;49.448;8.612;2023-07-24T04:10:48;7.97;;;4.25;;
1106;SDS011;540;49.448;8.612;2023-07-24T04:13:16;7.93;;;4.25;;
1106;SDS011;540;49.448;8.612;2023-07-24T04:15:44;9.95;;;4.15;;
1106;SDS011;540;49.448;8.612;2023-07-24T04:18:12;8.25;;;4.70;;
1106;SDS011;540;49.448;8.612;2023-07-24T04:20:41;6.88;;;4.15;;
1106;SDS011;540;49.448;8.612;2023-07-24T04:23:09;9.20;;;4.63;;
1106;SDS011;540;49.448;8.612;2023-07-24T04:25:37;8.80;;;4.30;;
1106;SDS011;540;49.448;8.612;2023-07-24T04:28:05;9.70;;;4.20;;
1106;SDS011;540;49.448;8.612;2023-07-24T04:30:33;9.07;;;3.78;;
1106;SDS011;540;49.448;8.612;2023-07-24T04:33:00;8.65;;;4.43;;
1106;SDS011;540;49.448;8.612;2023-07-24T04:35:28;7.45;;;4.28;;
1106;SDS011;540;49.448;8.612;2023-07-24T04:37:57;7.78;;;4.20;;
1106;SDS011;540;49.448;8.612;2023-07-24T04:40:25;8.48;;;4.18;;
1106;SDS011;540;49.448;8.612;2023-07-24T04:42:53;7.68;;;3.45;;
1106;SDS011;540;49.448;8.612;2023-07-24T04:45:21;6.93;;;4.18;;
1106;SDS011;540;49.448;8.612;2023-07-24T04:47:49;8.25;;;4.18;;
1106;SDS011;540;49.448;8.612;2023-07-24T04:50:17;6.60;;;3.90;;
1106;SDS011;540;49.448;8.612;2023-07-24T04:52:45;6.75;;;4.10;;
1106;SDS011;540;49.448;8.612;2023-07-24T04:55:14;7.70;;;4.30;;
1106;SDS011;540;49.448;8.612;2023-07-24T04:57:42;7.13;;;4.43;;
1106;SDS011;540;49.448;8.612;2023-07-24T05:00:10;6.82;;;4.05;;
1106;SDS011;540;49.448;8.612;2023-07-24T05:02:39;8.38;;;4.80;;
1106;SDS011;540;49.448;8.612;2023-07-24T05:05:08;10.43;;;5.03;;
1106;SDS011;540;49.448;8.612;2023-07-24T05:07:36;7.43;;;4.05;;
1106;SDS011;540;49.448;8.612;2023-07-24T05:10:04;9.77;;;5.10;;
1106;SDS011;540;49.448;8.612;2023-07-24T05:12:35;8.90;;;4.45;;
1106;SDS011;540;49.448;8.612;2023-07-24T05:15:03;8.07;;;4.85;;
1106;SDS011;540;49.448;8.612;2023-07-24T05:17:31;10.27;;;4.78;;
1106;SDS011;540;49.448;8.612;2023-07-24T05:19:59;6.88;;;4.03;;
1106;SDS011;540;49.448;8.612;2023-07-24T05:22:27;7.50;;;4.00;;
1106;SDS011;540;49.448;8.612;2023-07-24T05:24:55;6.90;;;4.20;;
1106;SDS011;540;49.448;8.612;2023-07-24T05:27:23;6.97;;;4.00;;
1106;SDS011;540;49.448;8.612;2023-07-24T05:29:52;7.32;;;4.10;;
1106;SDS011;540;49.448;8.612;2023-07-24T05:32:20;8.10;;;4.45;;
1106;SDS011;540;49.448;8.612;2023-07-24T05:34:48;9.88;;;4.53;;
1106;SDS011;540;49.448;8.612;2023-07-24T05:37:16;7.20;;;4.05;;
1106;SDS011;540;49.448;8.612;2023-07-24T05:39:44;7.70;;;4.25;;
1106;SDS011;540;49.448;8.612;2023-07-24T05:42:11;7.05;;;4.18;;
1106;SDS011;540;49.448;8.612;2023-07-24T05:44:39;8.07;;;4.47;;
1106;SDS011;540;49.448;8.612;2023-07-24T05:47:08;7.28;;;4.40;;
1106;SDS011;540;49.448;8.612;2023-07-24T05:49:36;9.95;;;4.97;;
1106;SDS011;540;49.448;8.612;2023-07-24T05:52:07;6.47;;;4.25;;
1106;SDS011;540;49.448;8.612;2023-07-24T05:54:35;8.90;;;4.47;;
1106;SDS011;540;49.448;8.612;2023-07-24T05:57:03;8.00;;;4.57;;
1106;SDS011;540;49.448;8.612;2023-07-24T05:59:31;8.73;;;4.53;;
1106;SDS011;540;49.448;8.612;2023-07-24T06:01:59;10.60;;;4.95;;
1106;SDS011;540;49.448;8.612;2023-07-24T06:04:28;6.78;;;4.13;;
1106;SDS011;540;49.448;8.612;2023-07-24T06:06:56;10.85;;;5.32;;
1106;SDS011;540;49.448;8.612;2023-07-24T06:09:24;7.68;;;4.53;;
1106;SDS011;540;49.448;8.612;2023-07-24T06:11:52;8.25;;;4.47;;
1106;SDS011;540;49.448;8.612;2023-07-24T06:14:20;7.75;;;4.35;;
1106;SDS011;540;49.448;8.612;2023-07-24T06:16:48;10.75;;;4.82;;
1106;SDS011;540;49.448;8.612;2023-07-24T06:19:15;10.00;;;4.82;;
1106;SDS011;540;49.448;8.612;2023-07-24T06:21:45;11.68;;;5.00;;
1106;SDS011;540;49.448;8.612;2023-07-24T06:24:12;7.60;;;4.43;;
1106;SDS011;540;49.448;8.612;2023-07-24T06:26:40;7.63;;;4.60;;
1106;SDS011;540;49.448;8.612;2023-07-24T06:29:08;8.75;;;5.13;;
1106;SDS011;540;49.448;8.612;2023-07-24T06:31:36;9.68;;;4.80;;
1106;SDS011;540;49.448;8.612;2023-07-24T06:34:04;7.55;;;4.55;;
1106;SDS011;540;49.448;8.612;2023-07-24T06:36:32;6.95;;;4.53;;
1106;SDS011;540;49.448;8.612;2023-07-24T06:39:03;8.07;;;4.93;;
1106;SDS011;540;49.448;8.612;2023-07-24T06:41:31;9.75;;;5.00;;
1106;SDS011;540;49.448;8.612;2023-07-24T06:43:59;10.32;;;4.82;;
1106;SDS011;540;49.448;8.612;2023-07-24T06:46:26;8.77;;;4.50;;
1106;SDS011;540;49.448;8.612;2023-07-24T06:48:55;8.88;;;4.82;;
1106;SDS011;540;49.448;8.612;2023-07-24T06:51:23;8.90;;;5.05;;
1106;SDS011;540;49.448;8.612;2023-07-24T06:53:50;9.57;;;5.70;;
1106;SDS011;540;49.448;8.612;2023-07-24T06:56:20;11.32;;;5.97;;
1106;SDS011;540;49.448;8.612;2023-07-24T06:58:47;8.98;;;4.88;;
1106;SDS011;540;49.448;8.612;2023-07-24T07:01:15;8.85;;;4.93;;
1106;SDS011;540;49.448;8.612;2023-07-24T07:03:43;9.73;;;4.70;;
1106;SDS011;540;49.448;8.612;2023-07-24T07:06:11;10.20;;;5.47;;
1106;SDS011;540;49.448;8.612;2023-07-24T07:08:42;10.23;;;4.80;;
1106;SDS011;540;49.448;8.612;2023-07-24T07:11:10;9.35;;;5.78;;
1106;SDS011;540;49.448;8.612;2023-07-24T07:13:40;12.05;;;5.18;;
1106;SDS011;540;49.448;8.612;2023-07-24T07:16:08;8.38;;;4.80;;
1106;SDS011;540;49.448;8.612;2023-07-24T07:18:35;7.82;;;4.70;;
1106;SDS011;540;49.448;8.612;2023-07-24T07:21:03;8.93;;;4.93;;
1106;SDS011;540;49.448;8.612;2023-07-24T07:23:31;8.93;;;4.82;;
1106;SDS011;540;49.448;8.612;2023-07-24T07:25:59;8.32;;;5.32;;
1106;SDS011;540;49.448;8.612;2023-07-24T07:28:28;9.13;;;5.18;;
1106;SDS011;540;49.448;8.612;2023-07-24T07:30:57;9.20;;;4.95;;
1106;SDS011;540;49.448;8.612;2023-07-24T07:33:25;8.88;;;5.13;;
1106;SDS011;540;49.448;8.612;2023-07-24T07:35:52;10.40;;;5.28;;
1106;SDS011;540;49.448;8.612;2023-07-24T07:38:23;7.28;;;4.22;;
1106;SDS011;540;49.448;8.612;2023-07-24T07:40:51;7.32;;;5.13;;
1106;SDS011;540;49.448;8.612;2023-07-24T07:43:19;7.97;;;5.32;;
1106;SDS011;540;49.448;8.612;2023-07-24T07:45:47;11.35;;;4.95;;
1106;SDS011;540;49.448;8.612;2023-07-24T07:48:16;9.13;;;5.35;;
1106;SDS011;540;49.448;8.612;2023-07-24T07:50:44;7.70;;;5.28;;
1106;SDS011;540;49.448;8.612;2023-07-24T07:53:16;9.85;;;5.78;;
1106;SDS011;540;49.448;8.612;2023-07-24T07:55:44;8.52;;;5.45;;
1106;SDS011;540;49.448;8.612;2023-07-24T07:58:12;8.77;;;5.47;;
1106;SDS011;540;49.448;8.612;2023-07-24T08:00:40;10.30;;;5.35;;
1106;SDS011;540;49.448;8.612;2023-07-24T08:03:09;11.35;;;5.13;;
1106;SDS011;540;49.448;8.612;2023-07-24T08:05:40;9.32;;;5.65;;
1106;SDS011;540;49.448;8.612;2023-07-24T08:08:09;8.30;;;4.90;;
1106;SDS011;540;49.448;8.612;2023-07-24T08:10:37;9.80;;;5.40;;
1106;SDS011;540;49.448;8.612;2023-07-24T08:13:07;11.18;;;5.55;;
1106;SDS011;540;49.448;8.612;2023-07-24T08:15:36;8.32;;;5.43;;
1106;SDS011;540;49.448;8.612;2023-07-24T08:18:05;8.68;;;5.28;;
1106;SDS011;540;49.448;8.612;2023-07-24T08:20:35;9.00;;;4.72;;
1106;SDS011;540;49.448;8.612;2023-07-24T08:23:05;8.40;;;5.03;;
1106;SDS011;540;49.448;8.612;2023-07-24T08:25:34;8.10;;;5.32;;
1106;SDS011;540;49.448;8.612;2023-07-24T08:28:04;8.65;;;5.38;;
1106;SDS011;540;49.448;8.612;2023-07-24T08:30:33;8.90;;;4.97;;
1106;SDS011;540;49.448;8.612;2023-07-24T08:33:02;10.15;;;5.55;;
1106;SDS011;540;49.448;8.612;2023-07-24T08:35:30;9.93;;;5.30;;
1106;SDS011;540;49.448;8.612;2023-07-24T08:37:58;11.63;;;5.85;;
1106;SDS011;540;49.448;8.612;2023-07-24T08:40:27;8.27;;;4.97;;
1106;SDS011;540;49.448;8.612;2023-07-24T08:42:54;7.43;;;4.95;;
1106;SDS011;540;49.448;8.612;2023-07-24T08:45:23;8.60;;;4.93;;
1106;SDS011;540;49.448;8.612;2023-07-24T08:47:53;9.60;;;5.43;;
1106;SDS011;540;49.448;8.612;2023-07-24T08:50:21;9.82;;;5.55;;
1106;SDS011;540;49.448;8.612;2023-07-24T08:52:49;12.60;;;5.40;;
1106;SDS011;540;49.448;8.612;2023-07-24T08:55:19;10.30;;;5.35;;
1106;SDS011;540;49.448;8.612;2023-07-24T08:57:49;9.65;;;4.57;;
1106;SDS011;540;49.448;8.612;2023-07-24T09:00:17;9.05;;;4.93;;
1106;SDS011;540;49.448;8.612;2023-07-24T09:02:45;11.55;;;6.28;;
1106;SDS011;540;49.448;8.612;2023-07-24T09:05:13;10.20;;;5.53;;
1106;SDS011;540;49.448;8.612;2023-07-24T09:07:43;10.20;;;5.63;;
1106;SDS011;540;49.448;8.612;2023-07-24T09:10:12;11.15;;;5.57;;
1106;SDS011;540;49.448;8.612;2023-07-24T09:12:41;8.55;;;5.50;;
1106;SDS011;540;49.448;8.612;2023-07-24T09:15:11;8.45;;;4.45;;
1106;SDS011;540;49.448;8.612;2023-07-24T09:17:47;9.90;;;5.60;;
1106;SDS011;540;49.448;8.612;2023-07-24T09:20:16;6.70;;;4.85;;
1106;SDS011;540;49.448;8.612;2023-07-24T09:22:57;14.65;;;6.43;;
1106;SDS011;540;49.448;8.612;2023-07-24T09:25:31;8.63;;;5.00;;
1106;SDS011;540;49.448;8.612;2023-07-24T09:28:01;8.98;;;5.50;;
1106;SDS011;540;49.448;8.612;2023-07-24T09:30:37;12.52;;;5.13;;
1106;SDS011;540;49.448;8.612;2023-07-24T09:33:05;9.40;;;5.50;;
1106;SDS011;540;49.448;8.612;2023-07-24T09:35:33;10.55;;;6.32;;
1106;SDS011;540;49.448;8.612;2023-07-24T09:38:02;8.38;;;5.05;;
1106;SDS011;540;49.448;8.612;2023-07-24T09:40:37;7.03;;;4.93;;
1106;SDS011;540;49.448;8.612;2023-07-24T09:43:16;8.60;;;5.10;;
1106;SDS011;540;49.448;8.612;2023-07-24T09:46:04;11.03;;;6.70;;
1106;SDS011;540;49.448;8.612;2023-07-24T09:48:33;8.05;;;4.88;;
1106;SDS011;540;49.448;8.612;2023-07-24T09:51:07;6.97;;;4.85;;
1106;SDS011;540;49.448;8.612;2023-07-24T09:53:39;12.88;;;5.40;;
1106;SDS011;540;49.448;8.612;2023-07-24T09:56:10;10.10;;;5.28;;
1106;SDS011;540;49.448;8.612;2023-07-24T09:58:39;10.43;;;4.63;;
1106;SDS011;540;49.448;8.612;2023-07-24T10:01:09;8.50;;;5.40;;
1106;SDS011;540;49.448;8.612;2023-07-24T10:03:38;8.90;;;5.63;;
1106;SDS011;540;49.448;8.612;2023-07-24T10:06:09;7.28;;;5.00;;
1106;SDS011;540;49.448;8.612;2023-07-24T10:08:38;8.23;;;4.70;;
1106;SDS011;540;49.448;8.612;2023-07-24T10:11:06;9.77;;;5.28;;
1106;SDS011;540;49.448;8.612;2023-07-24T10:13:36;8.80;;;4.75;;
1106;SDS011;540;49.448;8.612;2023-07-24T10:16:05;8.93;;;4.88;;
1106;SDS011;540;49.448;8.612;2023-07-24T10:18:35;7.05;;;4.90;;
1106;SDS011;540;49.448;8.612;2023-07-24T10:21:10;8.73;;;5.38;;
1106;SDS011;540;49.448;8.612;2023-07-24T10:23:40;7.72;;;4.72;;
1106;SDS011;540;49.448;8.612;2023-07-24T10:26:10;10.10;;;5.00;;
1106;SDS011;540;49.448;8.612;2023-07-24T10:28:38;8.77;;;5.00;;
1106;SDS011;540;49.448;8.612;2023-07-24T10:31:18;7.78;;;4.95;;
1106;SDS011;540;49.448;8.612;2023-07-24T10:33:48;7.70;;;4.57;;
1106;SDS011;540;49.448;8.612;2023-07-24T10:36:17;7.47;;;4.55;;
1106;SDS011;540;49.448;8.612;2023-07-24T10:38:46;9.18;;;5.03;;
1106;SDS011;540;49.448;8.612;2023-07-24T10:41:18;7.82;;;4.80;;
1106;SDS011;540;49.448;8.612;2023-07-24T10:43:47;6.78;;;4.47;;
1106;SDS011;540;49.448;8.612;2023-07-24T10:46:16;8.02;;;5.43;;
1106;SDS011;540;49.448;8.612;2023-07-24T10:48:46;8.63;;;5.63;;
1106;SDS011;540;49.448;8.612;2023-07-24T10:51:17;7.32;;;4.20;;
1106;SDS011;540;49.448;8.612;2023-07-24T10:53:45;7.82;;;5.05;;
1106;SDS011;540;49.448;8.612;2023-07-24T10:56:14;7.97;;;4.68;;
1106;SDS011;540;49.448;8.612;2023-07-24T10:58:43;14.77;;;4.43;;
1106;SDS011;540;49.448;8.612;2023-07-24T11:01:10;6.20;;;4.03;;
1106;SDS011;540;49.448;8.612;2023-07-24T11:03:40;6.70;;;4.15;;
1106;SDS011;540;49.448;8.612;2023-07-24T11:06:13;6.47;;;4.13;;
1106;SDS011;540;49.448;8.612;2023-07-24T11:08:42;9.38;;;4.20;;
1106;SDS011;540;49.448;8.612;2023-07-24T11:11:19;5.15;;;3.80;;
1106;SDS011;540;49.448;8.612;2023-07-24T11:13:47;6.72;;;4.18;;
1106;SDS011;540;49.448;8.612;2023-07-24T11:16:14;6.32;;;4.50;;
1106;SDS011;540;49.448;8.612;2023-07-24T11:18:45;7.18;;;4.30;;
1106;SDS011;540;49.448;8.612;2023-07-24T11:21:21;8.95;;;4.97;;
1106;SDS011;540;49.448;8.612;2023-07-24T11:23:50;6.32;;;4.82;;
1106;SDS011;540;49.448;8.612;2023-07-24T11:26:19;10.90;;;5.20;;
1106;SDS011;540;49.448;8.612;2023-07-24T11:28:48;8.52;;;5.53;;
1106;SDS011;540;49.448;8.612;2023-07-24T11:31:16;10.45;;;5.38;;
1106;SDS011;540;49.448;8.612;2023-07-24T11:33:46;8.48;;;4.60;;
1106;SDS011;540;49.448;8.612;2023-07-24T11:36:14;9.38;;;4.97;;
1106;SDS011;540;49.448;8.612;2023-07-24T11:38:45;14.07;;;5.03;;
1106;SDS011;540;49.448;8.612;2023-07-24T11:41:13;6.88;;;4.50;;
1106;SDS011;540;49.448;8.612;2023-07-24T11:43:47;6.55;;;4.38;;
1106;SDS011;540;49.448;8.612;2023-07-24T11:46:22;7.35;;;4.40;;
1106;SDS011;540;49.448;8.612;2023-07-24T11:48:52;8.48;;;4.60;;
1106;SDS011;540;49.448;8.612;2023-07-24T11:51:22;9.00;;;4.60;;
1106;SDS011;540;49.448;8.612;2023-07-24T11:54:03;8.77;;;5.55;;
1106;SDS011;540;49.448;8.612;2023-07-24T11:56:32;8.00;;;4.40;;
1106;SDS011;540;49.448;8.612;2023-07-24T11:59:08;8.18;;;4.78;;
1106;SDS011;540;49.448;8.612;2023-07-24T12:01:37;8.05;;;4.68;;
1106;SDS011;540;49.448;8.612;2023-07-24T12:04:05;7.45;;;4.28;;
1106;SDS011;540;49.448;8.612;2023-07-24T12:06:33;7.55;;;4.35;;
1106;SDS011;540;49.448;8.612;2023-07-24T12:09:04;8.52;;;4.43;;
1106;SDS011;540;49.448;8.612;2023-07-24T12:11:32;8.68;;;4.60;;
1106;SDS011;540;49.448;8.612;2023-07-24T12:14:01;6.95;;;4.38;;
1106;SDS011;540;49.448;8.612;2023-07-24T12:16:29;7.38;;;4.55;;
1106;SDS011;540;49.448;8.612;2023-07-24T12:18:57;9.35;;;4.78;;
1106;SDS011;540;49.448;8.612;2023-07-24T12:21:24;7.65;;;4.65;;
1106;SDS011;540;49.448;8.612;2023-07-24T12:23:52;6.90;;;4.38;;
1106;SDS011;540;49.448;8.612;2023-07-24T12:26:21;7.85;;;4.68;;
1106;SDS011;540;49.448;8.612;2023-07-24T12:28:51;8.10;;;5.32;;
1106;SDS011;540;49.448;8.612;2023-07-24T12:31:19;8.77;;;4.85;;
1106;SDS011;540;49.448;8.612;2023-07-24T12:33:47;6.93;;;4.47;;
1106;SDS011;540;49.448;8.612;2023-07-24T12:36:14;7.70;;;4.93;;
1106;SDS011;540;49.448;8.612;2023-07-24T12:38:42;7.18;;;4.57;;
1106;SDS011;540;49.448;8.612;2023-07-24T12:41:10;6.43;;;4.63;;
1106;SDS011;540;49.448;8.612;2023-07-24T12:43:39;8.48;;;4.93;;
1106;SDS011;540;49.448;8.612;2023-07-24T12:46:07;8.60;;;4.15;;
1106;SDS011;540;49.448;8.612;2023-07-24T12:48:35;7.72;;;4.55;;
1106;SDS011;540;49.448;8.612;2023-07-24T12:51:03;7.88;;;4.93;;
1106;SDS011;540;49.448;8.612;2023-07-24T12:53:31;7.88;;;4.45;;
1106;SDS011;540;49.448;8.612;2023-07-24T12:56:18;6.88;;;4.35;;
1106;SDS011;540;49.448;8.612;2023-07-24T12:58:48;7.97;;;5.32;;
1106;SDS011;540;49.448;8.612;2023-07-24T13:01:15;6.43;;;4.70;;
1106;SDS011;540;49.448;8.612;2023-07-24T13:03:43;7.03;;;4.72;;
1106;SDS011;540;49.448;8.612;2023-07-24T13:06:11;7.18;;;4.97;;
1106;SDS011;540;49.448;8.612;2023-07-24T13:08:39;10.57;;;4.68;;
1106;SDS011;540;49.448;8.612;2023-07-24T13:11:07;8.25;;;4.88;;
1106;SDS011;540;49.448;8.612;2023-07-24T13:13:35;5.68;;;4.13;;
1106;SDS011;540;49.448;8.612;2023-07-24T13:16:04;7.18;;;4.60;;
1106;SDS011;540;49.448;8.612;2023-07-24T13:18:32;7.75;;;4.95;;
1106;SDS011;540;49.448;8.612;2023-07-24T13:21:00;7.40;;;4.85;;
1106;SDS011;540;49.448;8.612;2023-07-24T13:23:28;7.43;;;4.78;;
1106;SDS011;540;49.448;8.612;2023-07-24T13:25:56;6.72;;;4.85;;
1106;SDS011;540;49.448;8.612;2023-07-24T13:28:23;7.18;;;4.72;;
1106;SDS011;540;49.448;8.612;2023-07-24T13:30:51;7.45;;;5.05;;
1106;SDS011;540;49.448;8.612;2023-07-24T13:33:21;6.25;;;4.82;;
1106;SDS011;540;49.448;8.612;2023-07-24T13:35:49;6.60;;;4.50;;
1106;SDS011;540;49.448;8.612;2023-07-24T13:38:17;5.97;;;4.55;;
1106;SDS011;540;49.448;8.612;2023-07-24T13:40:47;7.65;;;4.60;;
1106;SDS011;540;49.448;8.612;2023-07-24T13:43:15;7.05;;;4.35;;
1106;SDS011;540;49.448;8.612;2023-07-24T13:45:44;7.07;;;4.90;;
1106;SDS011;540;49.448;8.612;2023-07-24T13:48:12;7.60;;;5.10;;
1106;SDS011;540;49.448;8.612;2023-07-24T13:50:41;7.68;;;4.88;;
1106;SDS011;540;49.448;8.612;2023-07-24T13:53:09;7.97;;;4.70;;
1106;SDS011;540;49.448;8.612;2023-07-24T13:55:38;6.90;;;4.43;;
1106;SDS011;540;49.448;8.612;2023-07-24T13:58:05;6.07;;;4.38;;
1106;SDS011;540;49.448;8.612;2023-07-24T14:00:33;8.20;;;4.80;;
1106;SDS011;540;49.448;8.612;2023-07-24T14:03:01;7.78;;;4.95;;
1106;SDS011;540;49.448;8.612;2023-07-24T14:05:29;5.80;;;4.57;;
1106;SDS011;540;49.448;8.612;2023-07-24T14:07:58;7.15;;;5.03;;
1106;SDS011;540;49.448;8.612;2023-07-24T14:10:26;8.30;;;5.15;;
1106;SDS011;540;49.448;8.612;2023-07-24T14:12:54;7.13;;;5.07;;
1106;SDS011;540;49.448;8.612;2023-07-24T14:15:22;6.95;;;4.30;;
1106;SDS011;540;49.448;8.612;2023-07-24T14:17:50;6.43;;;4.63;;
1106;SDS011;540;49.448;8.612;2023-07-24T14:20:17;7.43;;;4.18;;
1106;SDS011;540;49.448;8.612;2023-07-24T14:22:46;8.23;;;5.10;;
1106;SDS011;540;49.448;8.612;2023-07-24T14:25:15;6.63;;;4.30;;
1106;SDS011;540;49.448;8.612;2023-07-24T14:27:43;8.48;;;4.43;;
1106;SDS011;540;49.448;8.612;2023-07-24T14:30:11;11.30;;;4.97;;
1106;SDS011;540;49.448;8.612;2023-07-24T14:32:39;9.77;;;6.07;;
1106;SDS011;540;49.448;8.612;2023-07-24T14:35:07;13.05;;;5.63;;
1106;SDS011;540;49.448;8.612;2023-07-24T14:37:35;9.70;;;4.70;;
1106;SDS011;540;49.448;8.612;2023-07-24T14:40:03;10.13;;;5.63;;
1106;SDS011;540;49.448;8.612;2023-07-24T14:42:33;13.75;;;6.78;;
1106;SDS011;540;49.448;8.612;2023-07-24T14:45:01;10.38;;;5.47;;
1106;SDS011;540;49.448;8.612;2023-07-24T14:47:29;10.57;;;5.57;;
1106;SDS011;540;49.448;8.612;2023-07-24T14:49:58;8.60;;;5.57;;
1106;SDS011;540;49.448;8.612;2023-07-24T14:52:26;9.30;;;5.90;;
1106;SDS011;540;49.448;8.612;2023-07-24T14:54:53;11.70;;;6.05;;
1106;SDS011;540;49.448;8.612;2023-07-24T14:57:21;10.25;;;5.90;;
1106;SDS011;540;49.448;8.612;2023-07-24T14:59:52;9.75;;;6.00;;
1106;SDS011;540;49.448;8.612;2023-07-24T15:02:20;9.25;;;5.57;;
1106;SDS011;540;49.448;8.612;2023-07-24T15:04:48;10.30;;;5.45;;
1106;SDS011;540;49.448;8.612;2023-07-24T15:07:16;10.45;;;5.57;;
1106;SDS011;540;49.448;8.612;2023-07-24T15:09:44;13.32;;;5.97;;
1106;SDS011;540;49.448;8.612;2023-07-24T15:12:12;13.20;;;5.93;;
1106;SDS011;540;49.448;8.612;2023-07-24T15:14:40;8.85;;;4.97;;
1106;SDS011;540;49.448;8.612;2023-07-24T15:17:09;9.00;;;4.80;;
1106;SDS011;540;49.448;8.612;2023-07-24T15:19:38;7.38;;;4.78;;
1106;SDS011;540;49.448;8.612;2023-07-24T15:22:06;8.52;;;5.03;;
1106;SDS011;540;49.448;8.612;2023-07-24T15:24:34;8.70;;;4.57;;
1106;SDS011;540;49.448;8.612;2023-07-24T15:27:02;6.97;;;4.47;;
1106;SDS011;540;49.448;8.612;2023-07-24T15:29:34;7.65;;;4.60;;
1106;SDS011;540;49.448;8.612;2023-07-24T15:32:02;6.25;;;4.10;;
1106;SDS011;540;49.448;8.612;2023-07-24T15:34:33;6.63;;;4.18;;
1106;SDS011;540;49.448;8.612;2023-07-24T15:37:04;6.38;;;3.47;;